Time;durP1;ratioP1;P1;durP2;ratioP2;P2;SDS_P1;SDS_P2;PMS_P1;PMS_P2;Temp;Humidity;BMP_temperature;BMP_pressure;BME280_temperature;BME280_humidity;BME280_pressure;Samples;Min_cycle;Max_cycle;Signal;HPM_P1;HPM_P2
2023/04/06 00:00:53;;;;;;;7.55;5.10;;;5.30;99.90;;;;;;7404412;19;19944;-74
2023/04/06 00:03:25;;;;;;;7.75;5.18;;;5.20;99.90;;;;;;7402805;19;19922;-74
2023/04/06 00:05:56;;;;;;;7.95;4.65;;;5.20;99.90;;;;;;7401470;19;19935;-74
2023/04/06 00:08:25;;;;;;;8.90;5.25;;;4.90;99.90;;;;;;7402980;19;19931;-75
2023/04/06 00:10:54;;;;;;;8.68;5.53;;;4.60;99.90;;;;;;7404126;19;19929;-74
2023/04/06 00:13:24;;;;;;;8.18;5.30;;;4.70;99.90;;;;;;7402196;19;19943;-76
2023/04/06 00:15:53;;;;;;;7.18;5.07;;;4.10;99.90;;;;;;7404373;19;19918;-76
2023/04/06 00:18:31;;;;;;;9.10;5.32;;;5.10;99.90;;;;;;7401956;19;19923;-75
2023/04/06 00:21:01;;;;;;;10.07;5.38;;;4.60;99.90;;;;;;7404101;19;19929;-75
2023/04/06 00:23:30;;;;;;;11.40;5.45;;;5.00;99.90;;;;;;7403239;19;19924;-75
2023/04/06 00:26:00;;;;;;;7.05;5.10;;;5.60;99.90;;;;;;7403484;19;19923;-75
2023/04/06 00:28:29;;;;;;;8.52;5.65;;;5.20;99.90;;;;;;7401434;19;19937;-75
2023/04/06 00:30:58;;;;;;;10.13;6.15;;;5.00;99.90;;;;;;7401253;19;20388;-75
2023/04/06 00:33:30;;;;;;;7.93;4.88;;;5.80;99.90;;;;;;7402076;19;19923;-75
2023/04/06 00:35:59;;;;;;;10.57;5.43;;;4.10;99.90;;;;;;7398877;19;19919;-75
2023/04/06 00:38:28;;;;;;;11.77;5.20;;;4.40;99.90;;;;;;7399285;19;19923;-75
2023/04/06 00:41:00;;;;;;;9.95;5.18;;;5.40;99.90;;;;;;7402333;19;19922;-75
2023/04/06 00:43:29;;;;;;;10.60;5.93;;;5.60;99.90;;;;;;7401398;19;19922;-75
2023/04/06 00:45:58;;;;;;;7.90;4.97;;;4.20;99.90;;;;;;7403344;19;20018;-75
2023/04/06 00:48:27;;;;;;;8.07;5.60;;;4.90;99.90;;;;;;7403135;19;19926;-75
2023/04/06 00:51:00;;;;;;;10.48;5.63;;;4.80;99.90;;;;;;7401838;19;19918;-76
2023/04/06 00:53:29;;;;;;;7.63;5.10;;;4.00;99.90;;;;;;7401922;19;19922;-75
2023/04/06 00:55:58;;;;;;;9.23;5.88;;;3.90;99.90;;;;;;7400195;19;19946;-75
2023/04/06 00:58:27;;;;;;;9.73;5.72;;;4.20;99.90;;;;;;7400459;19;19942;-75
2023/04/06 01:00:56;;;;;;;9.90;5.95;;;5.00;99.90;;;;;;7402528;19;20396;-75
2023/04/06 01:03:26;;;;;;;8.02;5.55;;;4.60;99.90;;;;;;7401154;19;19919;-75
2023/04/06 01:05:58;;;;;;;9.35;5.60;;;5.20;99.90;;;;;;7401372;19;19919;-75
2023/04/06 01:08:30;;;;;;;8.93;5.57;;;4.60;99.90;;;;;;7401139;19;20344;-75
2023/04/06 01:11:00;;;;;;;10.57;5.38;;;3.80;99.90;;;;;;7402201;19;19930;-75
2023/04/06 01:13:30;;;;;;;12.82;5.85;;;4.60;99.90;;;;;;7401377;19;19919;-74
2023/04/06 01:15:59;;;;;;;11.80;5.43;;;4.90;99.90;;;;;;7401302;19;20282;-74
2023/04/06 01:18:29;;;;;;;11.70;6.35;;;4.00;99.90;;;;;;7401130;19;19921;-75
2023/04/06 01:20:59;;;;;;;10.93;5.93;;;4.60;99.90;;;;;;7401037;19;19926;-75
2023/04/06 01:23:31;;;;;;;9.82;6.40;;;3.90;99.90;;;;;;7400358;19;19915;-76
2023/04/06 01:26:00;;;;;;;10.77;5.65;;;3.80;99.90;;;;;;7401891;19;19919;-76
2023/04/06 01:28:29;;;;;;;8.82;4.65;;;4.00;99.90;;;;;;7402282;19;19937;-75
2023/04/06 01:30:58;;;;;;;10.50;5.90;;;3.20;99.90;;;;;;7402557;19;20346;-75
2023/04/06 01:33:27;;;;;;;9.65;5.18;;;4.60;99.90;;;;;;7402679;19;19947;-75
2023/04/06 01:35:56;;;;;;;10.73;6.47;;;4.00;99.90;;;;;;7408056;19;19922;-75
2023/04/06 01:38:26;;;;;;;14.50;6.28;;;4.30;99.90;;;;;;7406326;19;19929;-77
2023/04/06 01:40:57;;;;;;;8.88;6.13;;;4.00;99.90;;;;;;7408064;19;20268;-76
2023/04/06 01:43:26;;;;;;;9.63;5.65;;;4.20;99.90;;;;;;7406869;19;19918;-75
2023/04/06 01:45:56;;;;;;;9.80;5.97;;;4.30;99.90;;;;;;7408637;19;19970;-75
2023/04/06 01:48:25;;;;;;;14.10;6.03;;;3.30;99.90;;;;;;7407709;19;19939;-76
2023/04/06 01:50:55;;;;;;;13.27;6.90;;;4.00;99.90;;;;;;7407610;19;19923;-75
2023/04/06 01:53:25;;;;;;;11.02;6.32;;;4.00;99.90;;;;;;7407268;19;20324;-76
2023/04/06 01:55:56;;;;;;;8.23;5.72;;;3.20;99.90;;;;;;7407349;19;19926;-75
2023/04/06 01:58:26;;;;;;;12.88;5.70;;;3.50;99.90;;;;;;7404603;19;19947;-75
2023/04/06 02:00:55;;;;;;;10.43;5.82;;;3.60;99.90;;;;;;7407642;19;19986;-75
2023/04/06 02:03:24;;;;;;;10.40;5.95;;;3.20;99.90;;;;;;7405777;19;19930;-75
2023/04/06 02:05:54;;;;;;;8.38;5.10;;;4.40;99.90;;;;;;7407985;19;20023;-77
2023/04/06 02:08:23;;;;;;;10.82;6.05;;;3.40;99.90;;;;;;7406349;19;20256;-76
2023/04/06 02:10:52;;;;;;;11.02;5.45;;;3.50;99.90;;;;;;7405479;19;19978;-76
2023/04/06 02:13:24;;;;;;;11.60;5.97;;;3.50;99.90;;;;;;7406747;19;20388;-75
2023/04/06 02:15:53;;;;;;;9.55;5.50;;;;;;;;;;7407095;19;19926;-75
2023/04/06 02:18:25;;;;;;;10.27;5.95;;;2.80;99.90;;;;;;7403185;19;19918;-75
2023/04/06 02:20:56;;;;;;;9.88;5.93;;;3.40;99.90;;;;;;7406580;19;19994;-75
2023/04/06 02:23:25;;;;;;;8.98;5.97;;;3.40;99.90;;;;;;7407014;19;19946;-75
2023/04/06 02:25:55;;;;;;;8.75;5.90;;;3.50;99.90;;;;;;7405345;19;19926;-76
2023/04/06 02:28:27;;;;;;;9.73;6.05;;;3.10;99.90;;;;;;7407306;19;19971;-75
2023/04/06 02:30:56;;;;;;;9.38;6.00;;;;;;;;;;7404296;19;19994;-76
2023/04/06 02:33:25;;;;;;;10.27;6.10;;;3.90;99.90;;;;;;7407090;19;19919;-75
2023/04/06 02:35:54;;;;;;;10.23;6.25;;;4.30;99.90;;;;;;7405925;19;19922;-75
2023/04/06 02:38:24;;;;;;;12.00;5.95;;;3.90;99.90;;;;;;7405461;19;19914;-76
2023/04/06 02:40:53;;;;;;;9.38;5.90;;;4.00;99.90;;;;;;7404696;19;19923;-75
2023/04/06 02:43:27;;;;;;;9.80;5.88;;;3.60;99.90;;;;;;7403889;19;19922;-75
2023/04/06 02:45:56;;;;;;;12.30;6.93;;;4.00;99.90;;;;;;7401964;19;19956;-75
2023/04/06 02:48:25;;;;;;;10.65;6.32;;;2.70;99.90;;;;;;7403271;19;19929;-75
2023/04/06 02:50:54;;;;;;;10.13;6.45;;;2.80;99.90;;;;;;7406703;19;19923;-75
2023/04/06 02:53:23;;;;;;;8.68;6.30;;;3.80;99.90;;;;;;7406111;19;19942;-75
2023/04/06 02:55:55;;;;;;;8.70;6.13;;;4.00;99.90;;;;;;7406570;19;19947;-75
2023/04/06 02:58:27;;;;;;;9.88;6.40;;;3.10;99.90;;;;;;7403395;19;20353;-75
2023/04/06 03:00:56;;;;;;;12.55;6.78;;;2.50;99.90;;;;;;7404527;19;19986;-76
2023/04/06 03:03:26;;;;;;;11.02;6.95;;;3.80;99.90;;;;;;7403983;19;19922;-75
2023/04/06 03:05:58;;;;;;;11.63;6.05;;;3.70;99.90;;;;;;7403815;19;19923;-74
2023/04/06 03:08:27;;;;;;;12.77;6.72;;;3.80;99.90;;;;;;7405181;19;19922;-75
2023/04/06 03:10:56;;;;;;;10.07;7.22;;;3.40;99.90;;;;;;7402140;19;19922;-75
2023/04/06 03:13:28;;;;;;;10.63;6.40;;;3.50;99.90;;;;;;7405057;19;19946;-75
2023/04/06 03:15:57;;;;;;;12.50;6.63;;;3.60;99.90;;;;;;7405484;19;19914;-75
2023/04/06 03:18:27;;;;;;;10.63;6.95;;;3.40;99.90;;;;;;7402875;19;19935;-76
2023/04/06 03:20:56;;;;;;;10.63;6.18;;;2.50;99.90;;;;;;7402101;19;19939;-75
2023/04/06 03:23:25;;;;;;;10.43;6.10;;;3.50;99.90;;;;;;7404474;19;19962;-75
2023/04/06 03:25:55;;;;;;;15.38;7.32;;;2.50;99.90;;;;;;7404475;19;20316;-75
2023/04/06 03:28:27;;;;;;;9.65;5.78;;;3.30;99.90;;;;;;7403851;19;20265;-75
2023/04/06 03:30:57;;;;;;;10.73;6.15;;;2.40;99.90;;;;;;7404312;19;19946;-76
2023/04/06 03:33:26;;;;;;;11.63;6.82;;;2.50;99.90;;;;;;7405424;19;19922;-75
2023/04/06 03:36:00;;;;;;;10.07;6.18;;;2.10;99.90;;;;;;7402113;19;20309;-75
2023/04/06 03:38:30;;;;;;;11.63;7.55;;;3.30;99.90;;;;;;7403379;19;20269;-74
2023/04/06 03:40:59;;;;;;;12.25;7.15;;;2.00;99.90;;;;;;7400850;19;19929;-76
2023/04/06 03:43:32;;;;;;;8.75;6.20;;;2.00;99.90;;;;;;7402799;19;19993;-75
2023/04/06 03:46:04;;;;;;;10.73;7.18;;;2.90;99.90;;;;;;7405231;19;19910;-75
2023/04/06 03:48:33;;;;;;;9.68;5.75;;;;;;;;;;7403042;19;19974;-75
2023/04/06 03:51:07;;;;;;;12.68;6.55;;;3.00;99.90;;;;;;7403892;19;19922;-75
2023/04/06 03:53:36;;;;;;;11.98;7.03;;;2.10;99.90;;;;;;7403796;19;19974;-75
2023/04/06 03:56:06;;;;;;;14.15;6.72;;;2.40;99.90;;;;;;7401743;19;19997;-75
2023/04/06 03:58:38;;;;;;;11.45;7.20;;;2.80;99.90;;;;;;7401655;19;19930;-75
2023/04/06 04:01:07;;;;;;;11.07;7.45;;;2.20;99.90;;;;;;7399913;19;19934;-74
2023/04/06 04:03:37;;;;;;;14.95;6.78;;;;;;;;;;7399933;19;20261;-75
2023/04/06 04:06:07;;;;;;;13.63;6.95;;;3.00;99.90;;;;;;7399443;19;19930;-75
2023/04/06 04:08:36;;;;;;;13.07;6.63;;;2.90;99.90;;;;;;7400142;19;19926;-75
2023/04/06 04:11:06;;;;;;;10.65;6.68;;;2.90;99.90;;;;;;7399072;19;19914;-75
2023/04/06 04:13:38;;;;;;;13.85;7.43;;;2.60;99.90;;;;;;7402252;19;19930;-75
2023/04/06 04:16:07;;;;;;;9.35;6.38;;;3.20;99.90;;;;;;7401590;19;19922;-75
2023/04/06 04:18:36;;;;;;;9.63;6.55;;;;;;;;;;7398367;19;19922;-74
2023/04/06 04:21:09;;;;;;;12.25;6.90;;;3.00;99.90;;;;;;7400126;19;19980;-74
2023/04/06 04:23:38;;;;;;;10.40;6.72;;;2.90;99.90;;;;;;7397013;19;19926;-74
2023/04/06 04:26:07;;;;;;;13.27;7.00;;;2.70;99.90;;;;;;7400604;19;19982;-74
2023/04/06 04:28:39;;;;;;;11.85;6.93;;;2.50;99.90;;;;;;7401553;19;20018;-75
2023/04/06 04:31:08;;;;;;;13.80;7.28;;;2.90;99.90;;;;;;7400369;19;19926;-75
2023/04/06 04:33:57;;;;;;;10.85;6.35;;;1.80;99.90;;;;;;7396467;19;20443;-75
2023/04/06 04:36:46;;;;;;;11.45;6.47;;;2.60;99.90;;;;;;7398793;19;19922;-75
2023/04/06 04:39:35;;;;;;;12.10;7.00;;;2.40;99.90;;;;;;7399132;19;19919;-75
2023/04/06 04:42:24;;;;;;;14.02;7.03;;;2.40;99.90;;;;;;7401345;19;20568;-75
2023/04/06 04:44:56;;;;;;;13.25;7.10;;;1.50;99.90;;;;;;7400379;19;19924;-75
2023/04/06 04:47:28;;;;;;;13.48;7.60;;;2.40;99.90;;;;;;7402241;19;19926;-75
2023/04/06 04:49:57;;;;;;;12.77;7.40;;;1.60;99.90;;;;;;7402270;19;19931;-74
2023/04/06 04:52:26;;;;;;;14.05;7.40;;;1.80;99.90;;;;;;7402120;19;19922;-75
2023/04/06 04:54:56;;;;;;;12.77;6.70;;;2.50;99.90;;;;;;7400386;19;19942;-74
2023/04/06 04:57:25;;;;;;;10.93;7.00;;;;;;;;;;7400096;19;19922;-75
2023/04/06 04:59:57;;;;;;;11.52;6.53;;;2.50;99.90;;;;;;7400094;19;20321;-75
2023/04/06 05:02:27;;;;;;;11.63;6.97;;;1.70;99.90;;;;;;7399970;19;19935;-75
2023/04/06 05:04:58;;;;;;;;;;;2.40;99.90;;;;;;7401351;19;19947;-75
2023/04/06 05:07:28;;;;;;;10.35;6.70;;;3.00;99.90;;;;;;7395563;19;19925;-75
2023/04/06 05:09:57;;;;;;;11.25;7.25;;;;;;;;;;7398872;19;19922;-74
2023/04/06 05:12:29;;;;;;;9.98;6.68;;;2.00;99.90;;;;;;7397755;19;20459;-75
2023/04/06 05:15:00;;;;;;;10.85;6.80;;;2.30;99.90;;;;;;7401569;19;19926;-75
2023/04/06 05:17:29;;;;;;;11.98;7.72;;;1.60;99.90;;;;;;7397812;19;20331;-75
2023/04/06 05:19:59;;;;;;;14.80;7.22;;;1.40;99.90;;;;;;7397859;19;19938;-75
2023/04/06 05:22:28;;;;;;;13.85;7.28;;;;;;;;;;7396600;19;19933;-75
2023/04/06 05:24:57;;;;;;;11.43;7.68;;;2.30;99.90;;;;;;7398137;19;19929;-75
2023/04/06 05:27:34;;;;;;;12.63;7.07;;;1.90;99.90;;;;;;7401873;19;19927;-74
2023/04/06 05:30:08;;;;;;;12.27;6.85;;;1.40;99.90;;;;;;7400146;19;19919;-74
2023/04/06 05:32:37;;;;;;;14.90;7.18;;;;;;;;;;7402960;19;19926;-75
2023/04/06 05:35:07;;;;;;;14.05;7.13;;;1.70;99.90;;;;;;7401276;19;19923;-74
2023/04/06 05:37:36;;;;;;;10.13;6.53;;;1.50;99.90;;;;;;7400576;19;19974;-74
2023/04/06 05:40:06;;;;;;;10.60;6.28;;;1.70;99.90;;;;;;7397996;19;19982;-74
2023/04/06 05:42:43;;;;;;;9.27;6.45;;;2.90;99.90;;;;;;7401848;19;19930;-74
2023/04/06 05:45:18;;;;;;;10.02;6.22;;;2.90;99.90;;;;;;7401568;19;19986;-74
2023/04/06 05:47:47;;;;;;;11.07;6.45;;;1.60;99.90;;;;;;7400141;19;19944;-74
2023/04/06 05:50:17;;;;;;;10.25;6.53;;;1.50;99.90;;;;;;7402060;19;19918;-74
2023/04/06 05:52:46;;;;;;;11.18;6.30;;;;;;;;;;7397563;19;19939;-74
2023/04/06 05:55:16;;;;;;;10.65;6.50;;;1.70;99.90;;;;;;7396551;19;19915;-74
2023/04/06 05:57:45;;;;;;;10.50;6.47;;;1.70;99.90;;;;;;7391561;19;19926;-74
2023/04/06 06:00:17;;;;;;;13.32;6.75;;;1.90;99.90;;;;;;7394890;19;20357;-74
2023/04/06 06:02:47;;;;;;;11.95;6.43;;;;;;;;;;7390767;19;20376;-74
2023/04/06 06:05:16;;;;;;;11.00;7.03;;;2.30;99.90;;;;;;7389429;19;19990;-73
2023/04/06 06:07:46;;;;;;;11.18;6.45;;;1.80;99.90;;;;;;7390314;19;19931;-74
2023/04/06 06:10:15;;;;;;;9.55;6.57;;;3.20;99.90;;;;;;7391490;19;20281;-74
2023/04/06 06:12:44;;;;;;;11.30;6.20;;;1.90;99.90;;;;;;7395478;19;19927;-75
2023/04/06 06:15:17;;;;;;;9.05;5.82;;;1.80;99.90;;;;;;7399251;19;19939;-74
2023/04/06 06:17:54;;;;;;;10.15;6.40;;;;;;;;;;7397019;19;19913;-75
2023/04/06 06:20:23;;;;;;;9.30;6.13;;;2.80;99.90;;;;;;7400032;19;20317;-74
2023/04/06 06:22:52;;;;;;;10.40;5.45;;;2.90;99.90;;;;;;7398519;19;20134;-75
2023/04/06 06:25:22;;;;;;;9.90;5.93;;;3.10;99.90;;;;;;7399958;19;19933;-77
2023/04/06 06:27:52;;;;;;;8.45;5.38;;;3.40;99.90;;;;;;7405593;19;19918;-75
2023/04/06 06:30:24;;;;;;;12.10;5.82;;;2.70;99.90;;;;;;7406350;19;19922;-76
2023/04/06 06:32:54;;;;;;;8.45;6.07;;;3.30;99.90;;;;;;7404957;19;20264;-75
2023/04/06 06:35:23;;;;;;;11.02;6.25;;;2.70;99.90;;;;;;7402237;19;19922;-73
2023/04/06 06:37:52;;;;;;;9.00;5.78;;;2.40;99.90;;;;;;7400481;19;20249;-74
2023/04/06 06:40:23;;;;;;;10.68;5.60;;;2.90;99.90;;;;;;7402737;19;19981;-73
2023/04/06 06:42:53;;;;;;;10.40;5.88;;;3.50;99.90;;;;;;7405884;19;19925;-73
2023/04/06 06:45:25;;;;;;;9.98;5.97;;;3.80;99.90;;;;;;7397730;19;19930;-74
2023/04/06 06:47:54;;;;;;;9.48;5.60;;;2.30;99.90;;;;;;7398888;19;19978;-73
2023/04/06 06:50:24;;;;;;;8.45;4.97;;;2.50;99.90;;;;;;7396908;19;20577;-74
2023/04/06 06:52:53;;;;;;;10.23;6.18;;;3.40;99.90;;;;;;7399739;19;19923;-74
2023/04/06 06:55:22;;;;;;;8.27;5.22;;;3.10;99.90;;;;;;7396880;19;19972;-73
2023/04/06 06:57:51;;;;;;;8.80;5.25;;;3.40;99.90;;;;;;7394322;19;19925;-73
2023/04/06 07:00:21;;;;;;;7.30;5.03;;;2.50;99.90;;;;;;7388332;19;19918;-74
2023/04/06 07:02:52;;;;;;;10.30;5.35;;;4.20;99.90;;;;;;7393815;19;19926;-74
2023/04/06 07:05:21;;;;;;;10.38;5.22;;;4.10;99.90;;;;;;7397548;19;19922;-73
2023/04/06 07:07:51;;;;;;;8.07;5.47;;;3.20;99.90;;;;;;7399998;19;19974;-73
2023/04/06 07:10:20;;;;;;;10.98;5.65;;;3.90;99.90;;;;;;7401461;19;19922;-74
2023/04/06 07:12:49;;;;;;;10.73;5.03;;;3.20;99.90;;;;;;7400107;19;19982;-73
2023/04/06 07:15:18;;;;;;;10.38;5.55;;;4.30;99.90;;;;;;7403712;19;19926;-73
2023/04/06 07:17:47;;;;;;;10.45;6.18;;;3.40;99.90;;;;;;7403182;19;19922;-74
2023/04/06 07:20:19;;;;;;;8.57;5.13;;;3.70;99.90;;;;;;7395434;19;19922;-74
2023/04/06 07:22:48;;;;;;;9.40;5.40;;;4.30;99.90;;;;;;7399444;19;19978;-73
2023/04/06 07:25:17;;;;;;;11.30;5.88;;;3.70;99.90;;;;;;7404225;19;20357;-73
2023/04/06 07:27:47;;;;;;;8.30;5.43;;;3.00;99.90;;;;;;7403688;19;19936;-73
2023/04/06 07:30:18;;;;;;;11.13;5.90;;;3.40;99.90;;;;;;7401520;19;19923;-73
2023/04/06 07:32:46;;;;;;;8.43;5.60;;;3.90;99.90;;;;;;7398665;19;19911;-73
2023/04/06 07:35:16;;;;;;;7.57;5.32;;;4.30;99.90;;;;;;7401229;19;19911;-73
2023/04/06 07:37:47;;;;;;;9.20;5.30;;;3.90;99.90;;;;;;7402269;19;19955;-73
2023/04/06 07:40:17;;;;;;;10.60;6.03;;;;;;;;;;7400447;19;20340;-73
2023/04/06 07:42:47;;;;;;;9.65;5.53;;;4.50;99.90;;;;;;7403106;19;19928;-73
2023/04/06 07:45:16;;;;;;;7.38;5.03;;;5.00;99.90;;;;;;7402083;19;20391;-73
2023/04/06 07:47:46;;;;;;;7.30;5.30;;;4.60;99.90;;;;;;7400914;19;19926;-74
2023/04/06 07:50:15;;;;;;;7.72;5.10;;;4.90;99.90;;;;;;7401838;19;19925;-73
2023/04/06 07:52:47;;;;;;;6.80;5.05;;;3.80;99.90;;;;;;7400710;19;19918;-73
2023/04/06 07:55:15;;;;;;;;;;;4.40;99.90;;;;;;7404574;19;19978;-73
2023/04/06 07:57:44;;;;;;;9.38;5.50;;;5.30;99.90;;;;;;7399696;19;20302;-73
2023/04/06 08:00:15;;;;;;;10.23;5.20;;;5.40;99.90;;;;;;7398784;19;19922;-73
2023/04/06 08:02:44;;;;;;;9.13;5.07;;;4.90;99.90;;;;;;7399172;19;19918;-73
2023/04/06 08:05:13;;;;;;;8.88;5.07;;;4.70;99.90;;;;;;7401203;19;19925;-73
2023/04/06 08:07:42;;;;;;;8.15;5.05;;;4.10;99.90;;;;;;7399340;19;19918;-73
2023/04/06 08:10:14;;;;;;;6.88;5.50;;;4.80;99.90;;;;;;7394467;19;19926;-73
2023/04/06 08:12:44;;;;;;;7.63;5.13;;;5.30;99.90;;;;;;7396177;19;19910;-73
2023/04/06 08:15:13;;;;;;;8.23;5.10;;;5.10;99.90;;;;;;7398906;19;19928;-73
2023/04/06 08:17:42;;;;;;;8.73;5.22;;;5.10;99.90;;;;;;7393566;19;19943;-74
2023/04/06 08:20:12;;;;;;;7.88;5.22;;;4.80;99.90;;;;;;7393667;19;21011;-73
2023/04/06 08:22:41;;;;;;;8.95;5.57;;;5.20;99.90;;;;;;7397670;19;20513;-73
2023/04/06 08:25:13;;;;;;;10.63;5.40;;;5.30;99.90;;;;;;7397179;19;19951;-74
2023/04/06 08:27:42;;;;;;;8.60;5.50;;;5.50;99.90;;;;;;7393568;19;19922;-73
2023/04/06 08:30:14;;;;;;;8.07;4.78;;;6.50;99.90;;;;;;7394641;19;19954;-72
2023/04/06 08:32:44;;;;;;;10.18;6.40;;;5.60;99.90;;;;;;7394799;19;19930;-73
2023/04/06 08:35:13;;;;;;;7.13;5.15;;;5.50;99.90;;;;;;7391388;19;19953;-73
2023/04/06 08:37:42;;;;;;;8.95;5.32;;;5.70;99.90;;;;;;7397362;19;19925;-74
2023/04/06 08:40:15;;;;;;;7.45;4.82;;;5.90;99.90;;;;;;7391165;19;19918;-73
2023/04/06 08:42:52;;;;;;;8.82;5.55;;;5.80;99.90;;;;;;7391684;19;19927;-74
2023/04/06 08:45:21;;;;;;;8.13;5.00;;;6.00;99.90;;;;;;7394114;19;19918;-75
2023/04/06 08:47:52;;;;;;;8.65;5.53;;;6.00;99.90;;;;;;7391896;19;20494;-73
2023/04/06 08:50:21;;;;;;;8.80;4.75;;;6.10;99.90;;;;;;7389214;19;19938;-74
2023/04/06 08:52:51;;;;;;;8.82;5.40;;;6.30;99.90;;;;;;7392069;19;19932;-74
2023/04/06 08:55:23;;;;;;;8.25;5.63;;;6.40;99.90;;;;;;7397012;19;19938;-74
2023/04/06 08:57:54;;;;;;;8.18;5.57;;;6.40;99.90;;;;;;7399444;19;19919;-74
2023/04/06 09:00:24;;;;;;;9.20;4.93;;;6.50;99.90;;;;;;7398303;19;19924;-74
2023/04/06 09:02:54;;;;;;;7.07;5.20;;;6.60;99.90;;;;;;7395404;19;19922;-74
2023/04/06 09:05:24;;;;;;;7.07;5.15;;;6.60;99.90;;;;;;7400348;19;19935;-72
2023/04/06 09:07:53;;;;;;;7.07;5.60;;;6.80;99.90;;;;;;7395592;19;20303;-73
2023/04/06 09:10:26;;;;;;;10.45;5.38;;;7.00;99.90;;;;;;7400676;19;19915;-73
2023/04/06 09:13:06;;;;;;;7.88;5.35;;;7.10;99.90;;;;;;7399613;19;20001;-73
2023/04/06 09:15:35;;;;;;;9.43;5.32;;;7.10;99.90;;;;;;7395720;19;19926;-74
2023/04/06 09:18:05;;;;;;;7.45;5.10;;;7.40;99.90;;;;;;7399523;19;19928;-74
2023/04/06 09:20:34;;;;;;;7.70;5.07;;;7.40;99.90;;;;;;7396992;19;20422;-74
2023/04/06 09:23:03;;;;;;;8.75;5.60;;;7.50;99.90;;;;;;7399171;19;19986;-74
2023/04/06 09:25:35;;;;;;;8.30;5.40;;;7.60;99.90;;;;;;7400442;19;19915;-74
2023/04/06 09:28:06;;;;;;;8.55;5.25;;;7.60;99.90;;;;;;7399011;19;20252;-74
2023/04/06 09:30:35;;;;;;;9.10;5.30;;;7.70;99.90;;;;;;7393944;19;19930;-74
2023/04/06 09:33:05;;;;;;;10.00;5.68;;;7.90;99.90;;;;;;7393873;19;19974;-72
2023/04/06 09:35:34;;;;;;;6.80;5.50;;;8.00;99.90;;;;;;7395527;19;19934;-73
2023/04/06 09:38:14;;;;;;;7.53;5.82;;;8.00;99.90;;;;;;7398643;19;19926;-73
2023/04/06 09:40:53;;;;;;;8.30;5.57;;;10.20;99.90;;;;;;7397396;19;19922;-73
2023/04/06 09:43:29;;;;;;;10.02;5.97;;;8.20;99.90;;;;;;7397986;19;19936;-73
2023/04/06 09:45:59;;;;;;;8.13;5.50;;;8.20;99.90;;;;;;7396459;19;19919;-73
2023/04/06 09:48:29;;;;;;;9.18;5.57;;;8.20;99.90;;;;;;7398350;19;20348;-74
2023/04/06 09:51:02;;;;;;;12.65;5.40;;;8.40;99.90;;;;;;7396897;19;20387;-73
2023/04/06 09:53:33;;;;;;;8.80;5.32;;;8.60;99.90;;;;;;7375949;19;19919;-74
2023/04/06 09:56:08;;;;;;;8.98;5.60;;;8.70;99.90;;;;;;7402550;19;19932;-73
2023/04/06 09:58:41;;;;;;;10.15;5.28;;;8.80;99.90;;;;;;7403870;19;19919;-73
2023/04/06 10:01:14;;;;;;;12.05;5.80;;;8.90;99.90;;;;;;7403144;19;19933;-73
2023/04/06 10:03:49;;;;;;;9.43;5.50;;;8.80;99.90;;;;;;7401214;19;19919;-74
2023/04/06 10:06:25;;;;;;;9.48;4.68;;;8.90;99.90;;;;;;7402520;19;19939;-73
2023/04/06 10:08:57;;;;;;;9.25;5.45;;;9.10;99.90;;;;;;7401848;19;20271;-74
2023/04/06 10:11:30;;;;;;;8.07;4.97;;;9.20;99.90;;;;;;7405239;19;20366;-73
2023/04/06 10:13:59;;;;;;;8.48;5.18;;;9.40;99.90;;;;;;7404353;19;19926;-75
2023/04/06 10:16:29;;;;;;;13.05;5.10;;;9.60;99.90;;;;;;7407219;19;19974;-73
2023/04/06 10:19:04;;;;;;;10.63;6.30;;;9.50;99.90;;;;;;7407117;19;19926;-73
2023/04/06 10:21:34;;;;;;;9.43;5.45;;;9.70;99.90;;;;;;7402607;19;19950;-74
2023/04/06 10:24:05;;;;;;;9.00;5.40;;;9.80;99.90;;;;;;7403710;19;19937;-73
2023/04/06 10:26:36;;;;;;;11.48;6.65;;;9.80;99.90;;;;;;7404543;19;19918;-73
2023/04/06 10:29:06;;;;;;;11.57;7.00;;;9.80;99.90;;;;;;7405700;19;19947;-73
2023/04/06 10:31:35;;;;;;;15.48;8.57;;;10.00;99.90;;;;;;7398582;19;20276;-73
2023/04/06 10:34:05;;;;;;;16.70;7.18;;;10.00;99.90;;;;;;7393501;19;20426;-73
2023/04/06 10:36:36;;;;;;;12.57;6.63;;;10.20;99.90;;;;;;7399674;19;20002;-73
2023/04/06 10:39:08;;;;;;;12.75;7.35;;;10.30;99.90;;;;;;7403590;19;20383;-73
2023/04/06 10:41:46;;;;;;;12.23;7.53;;;10.30;99.90;;;;;;7403189;19;19980;-73
2023/04/06 10:44:22;;;;;;;13.02;7.32;;;10.40;99.90;;;;;;7402533;19;19950;-73
2023/04/06 10:47:00;;;;;;;15.57;7.65;;;10.50;99.90;;;;;;7404204;19;19930;-73
2023/04/06 10:49:28;;;;;;;;;;;10.40;99.90;;;;;;7381348;19;19933;-73
2023/04/06 10:51:59;;;;;;;13.30;7.40;;;10.50;99.90;;;;;;7401798;19;19926;-74
2023/04/06 10:54:29;;;;;;;16.65;8.95;;;10.40;99.90;;;;;;7403801;19;19930;-74
2023/04/06 10:57:01;;;;;;;16.10;8.23;;;10.50;99.90;;;;;;7403814;19;19918;-75
2023/04/06 10:59:31;;;;;;;;;;;10.60;99.90;;;;;;7405273;19;19986;-73
2023/04/06 11:02:00;;;;;;;15.20;8.90;;;10.60;99.90;;;;;;7402760;19;19923;-74
2023/04/06 11:04:30;;;;;;;14.82;8.60;;;10.60;99.90;;;;;;7403665;19;19918;-75
2023/04/06 11:06:59;;;;;;;13.32;8.10;;;10.60;99.90;;;;;;7397226;19;19923;-75
2023/04/06 11:09:28;;;;;;;17.55;8.60;;;10.70;99.90;;;;;;7404838;19;19978;-75
2023/04/06 11:12:01;;;;;;;15.82;9.25;;;10.80;99.90;;;;;;7404713;19;19930;-75
2023/04/06 11:14:30;;;;;;;14.60;8.07;;;11.50;99.90;;;;;;7405451;19;19930;-75
2023/04/06 11:16:59;;;;;;;16.25;9.10;;;10.70;99.90;;;;;;7405608;19;19928;-75
2023/04/06 11:19:28;;;;;;;15.15;8.85;;;10.90;99.90;;;;;;7402197;19;19930;-74
2023/04/06 11:21:57;;;;;;;18.70;10.15;;;10.70;99.90;;;;;;7392874;19;19926;-75
2023/04/06 11:24:27;;;;;;;17.08;8.93;;;10.70;99.90;;;;;;7398114;19;19925;-75
2023/04/06 11:26:58;;;;;;;23.63;9.98;;;10.70;99.90;;;;;;7394909;19;19922;-73
2023/04/06 11:29:32;;;;;;;15.00;9.18;;;10.90;99.90;;;;;;7389886;19;19958;-74
2023/04/06 11:32:03;;;;;;;16.52;8.85;;;10.90;99.90;;;;;;7386457;19;19926;-75
2023/04/06 11:34:35;;;;;;;16.67;9.88;;;11.20;99.90;;;;;;7391834;19;20253;-74
2023/04/06 11:37:05;;;;;;;;;;;11.40;99.90;;;;;;7393660;19;19918;-74
2023/04/06 11:39:35;;;;;;;21.17;10.88;;;11.30;99.90;;;;;;7386403;19;19975;-74
2023/04/06 11:42:05;;;;;;;19.70;10.07;;;11.20;99.90;;;;;;7388828;19;19926;-75
2023/04/06 11:44:39;;;;;;;15.68;9.00;;;11.40;99.90;;;;;;7389910;19;19926;-75
2023/04/06 11:47:10;;;;;;;15.85;9.90;;;11.20;99.90;;;;;;7392296;19;19918;-74
2023/04/06 11:49:41;;;;;;;19.40;10.70;;;11.30;99.90;;;;;;7389832;19;19918;-74
2023/04/06 11:52:18;;;;;;;20.08;10.13;;;11.10;99.90;;;;;;7392359;19;19929;-74
2023/04/06 11:54:48;;;;;;;17.58;10.13;;;11.20;99.90;;;;;;7392369;19;19923;-74
2023/04/06 11:57:19;;;;;;;20.25;10.18;;;11.20;99.90;;;;;;7393608;19;19933;-75
2023/04/06 11:59:50;;;;;;;18.55;10.00;;;11.20;99.90;;;;;;7376334;19;19922;-75
2023/04/06 12:02:20;;;;;;;18.63;10.77;;;11.40;99.90;;;;;;7391950;19;20360;-75
2023/04/06 12:04:49;;;;;;;17.27;9.85;;;11.30;99.90;;;;;;7394134;19;20261;-74
2023/04/06 12:07:18;;;;;;;19.50;10.85;;;11.40;99.90;;;;;;7391672;19;20335;-75
2023/04/06 12:09:47;;;;;;;18.17;11.15;;;11.60;99.90;;;;;;7390757;19;20249;-74
2023/04/06 12:12:16;;;;;;;19.50;9.98;;;11.70;99.90;;;;;;7391023;19;19934;-75
2023/04/06 12:14:45;;;;;;;19.08;10.60;;;11.80;99.90;;;;;;7392751;19;19926;-74
2023/04/06 12:17:17;;;;;;;21.27;11.48;;;11.80;99.90;;;;;;7389320;19;19919;-74
2023/04/06 12:19:46;;;;;;;16.27;9.90;;;11.90;99.90;;;;;;7392147;19;19922;-75
2023/04/06 12:22:15;;;;;;;21.88;10.48;;;12.10;99.80;;;;;;7392738;19;19922;-75
2023/04/06 12:24:44;;;;;;;16.92;10.90;;;12.20;99.90;;;;;;7393662;19;19932;-75
2023/04/06 12:27:13;;;;;;;19.15;10.05;;;12.30;99.90;;;;;;7391738;19;19922;-75
2023/04/06 12:29:42;;;;;;;15.95;10.73;;;12.40;99.80;;;;;;7391273;19;19922;-75
2023/04/06 12:32:11;;;;;;;19.40;10.55;;;12.50;99.40;;;;;;7392853;19;19951;-75
2023/04/06 12:34:43;;;;;;;18.88;11.30;;;12.70;99.90;;;;;;7391695;19;19934;-74
2023/04/06 12:37:12;;;;;;;19.17;11.50;;;12.70;99.90;;;;;;7391337;19;19922;-75
2023/04/06 12:39:41;;;;;;;19.10;10.95;;;12.80;99.90;;;;;;7391300;19;19922;-75
2023/04/06 12:42:10;;;;;;;18.88;11.32;;;12.80;99.40;;;;;;7391517;19;20376;-75
2023/04/06 12:44:39;;;;;;;17.92;11.10;;;14.10;99.10;;;;;;7392636;19;20619;-75
2023/04/06 12:47:08;;;;;;;19.98;11.57;;;12.90;99.40;;;;;;7392631;19;20552;-75
2023/04/06 12:49:37;;;;;;;18.17;10.95;;;12.90;99.50;;;;;;7393116;19;19931;-76
2023/04/06 12:52:09;;;;;;;17.67;11.10;;;13.10;99.40;;;;;;7392134;19;19922;-75
2023/04/06 12:54:58;;;;;;;20.83;11.85;;;13.10;99.70;;;;;;7390081;19;20556;-75
2023/04/06 12:57:27;;;;;;;16.65;10.52;;;13.10;98.50;;;;;;7391146;19;19923;-75
2023/04/06 12:59:56;;;;;;;16.58;10.98;;;12.90;98.70;;;;;;7391784;19;19986;-76
2023/04/06 13:02:25;;;;;;;18.30;11.20;;;12.90;99.30;;;;;;7391824;19;19986;-75
2023/04/06 13:04:54;;;;;;;16.58;11.50;;;12.90;99.00;;;;;;7391022;19;19960;-75
2023/04/06 13:07:26;;;;;;;16.90;11.65;;;12.90;99.10;;;;;;7391497;19;19922;-75
2023/04/06 13:09:55;;;;;;;20.42;12.77;;;12.80;99.00;;;;;;7390549;19;19934;-75